createdAt,value
2022-10-05T00:00:28.434Z,9.53
2022-10-05T00:02:56.065Z,9.33
2022-10-05T00:05:26.894Z,8.93
2022-10-05T00:07:56.593Z,8.57
2022-10-05T00:10:24.145Z,9.37
2022-10-05T00:12:50.887Z,9.53
2022-10-05T00:15:20.208Z,9.47
2022-10-05T00:17:47.060Z,8.20
2022-10-05T00:20:26.300Z,10.80
2022-10-05T00:22:58.549Z,8.57
2022-10-05T00:25:25.498Z,11.37
2022-10-05T00:28:03.233Z,8.03
2022-10-05T00:30:33.111Z,8.37
2022-10-05T00:33:00.187Z,10.23
2022-10-05T00:35:29.624Z,8.10
2022-10-05T00:37:56.680Z,11.43
2022-10-05T00:40:32.622Z,7.43
2022-10-05T00:43:14.281Z,10.90
2022-10-05T00:45:54.846Z,9.87
2022-10-05T00:48:34.111Z,8.87
2022-10-05T00:51:12.486Z,10.60
2022-10-05T00:53:45.839Z,9.70
2022-10-05T00:56:39.544Z,8.70
2022-10-05T00:59:32.025Z,11.80
2022-10-05T01:02:12.495Z,9.80
2022-10-05T01:05:11.200Z,9.33
2022-10-05T01:07:40.593Z,8.83
2022-10-05T01:10:23.874Z,9.23
2022-10-05T01:13:08.422Z,11.57
2022-10-05T01:15:43.663Z,10.53
2022-10-05T01:18:22.572Z,13.77
2022-10-05T01:21:07.422Z,9.93
2022-10-05T01:24:07.723Z,10.23
2022-10-05T01:26:43.451Z,12.43
2022-10-05T01:29:28.363Z,11.20
2022-10-05T01:32:04.114Z,13.57
2022-10-05T01:34:34.003Z,12.27
2022-10-05T01:37:30.319Z,10.13
2022-10-05T01:39:56.982Z,10.80
2022-10-05T01:42:37.501Z,9.63
2022-10-05T01:45:45.882Z,8.63
2022-10-05T01:48:52.045Z,10.00
2022-10-05T01:51:40.794Z,9.80
2022-10-05T01:54:36.359Z,9.97
2022-10-05T01:57:14.601Z,9.87
2022-10-05T02:00:07.598Z,9.20
2022-10-05T02:02:46.964Z,10.93
2022-10-05T02:05:20.308Z,9.47
2022-10-05T02:08:01.569Z,11.67
2022-10-05T02:10:44.627Z,10.13
2022-10-05T02:13:23.420Z,11.90
2022-10-05T02:15:57.976Z,10.53
2022-10-05T02:18:30.606Z,9.70
2022-10-05T02:21:00.101Z,12.87
2022-10-05T02:23:32.590Z,10.57
2022-10-05T02:26:04.236Z,11.00
2022-10-05T02:28:39.533Z,10.80
2022-10-05T02:31:15.183Z,14.17
2022-10-05T02:33:42.039Z,12.07
2022-10-05T02:36:15.985Z,11.17
2022-10-05T02:39:03.516Z,9.13
2022-10-05T02:41:53.358Z,12.63
2022-10-05T02:44:26.179Z,12.30
2022-10-05T02:47:12.570Z,16.47
2022-10-05T02:49:45.064Z,12.77
2022-10-05T02:52:26.636Z,11.97
2022-10-05T02:55:05.766Z,13.57
2022-10-05T02:57:51.942Z,11.77
2022-10-05T03:00:24.586Z,12.37
2022-10-05T03:03:23.022Z,11.90
2022-10-05T03:06:05.713Z,11.80
2022-10-05T03:08:44.040Z,10.97
2022-10-05T03:11:33.751Z,13.40
2022-10-05T03:14:23.336Z,12.87
2022-10-05T03:17:31.099Z,14.37
2022-10-05T03:20:32.443Z,9.07
2022-10-05T03:23:04.394Z,12.60
2022-10-05T03:25:39.944Z,10.37
2022-10-05T03:28:37.371Z,11.07
2022-10-05T03:31:25.989Z,14.83
2022-10-05T03:34:00.041Z,10.60
2022-10-05T03:36:59.554Z,13.27
2022-10-05T03:39:58.436Z,10.07
2022-10-05T03:42:41.531Z,11.10
2022-10-05T03:45:14.292Z,10.60
2022-10-05T03:47:52.224Z,10.30
2022-10-05T03:50:40.759Z,9.30
2022-10-05T03:53:20.601Z,10.17
2022-10-05T03:56:01.355Z,10.63
2022-10-05T03:59:12.946Z,10.47
2022-10-05T04:01:45.636Z,8.20
2022-10-05T04:04:19.980Z,9.47
2022-10-05T04:06:49.541Z,8.43
2022-10-05T04:09:42.391Z,8.50
2022-10-05T04:12:43.875Z,9.30
2022-10-05T04:15:31.603Z,12.57
2022-10-05T04:18:06.730Z,12.33
2022-10-05T04:20:43.393Z,12.50
2022-10-05T04:23:10.214Z,12.13
2022-10-05T04:26:09.040Z,12.43
2022-10-05T04:28:44.674Z,11.17
2022-10-05T04:31:18.485Z,11.53
2022-10-05T04:33:53.624Z,12.07
2022-10-05T04:36:31.757Z,11.30
2022-10-05T04:39:43.229Z,10.23
2022-10-05T04:42:36.365Z,12.10
2022-10-05T04:45:15.110Z,12.53
2022-10-05T04:47:52.939Z,12.53
2022-10-05T04:50:58.121Z,12.90
2022-10-05T04:53:37.061Z,12.10
2022-10-05T04:56:18.169Z,14.37
2022-10-05T04:59:00.978Z,14.17
2022-10-05T05:02:07.922Z,12.33
2022-10-05T05:05:01.738Z,13.77
2022-10-05T05:07:56.237Z,12.93
2022-10-05T05:10:47.920Z,9.83
2022-10-05T05:13:39.343Z,10.27
2022-10-05T05:16:32.794Z,11.60
2022-10-05T05:19:22.993Z,11.80
2022-10-05T05:22:14.844Z,12.20
2022-10-05T05:25:11.258Z,12.67
2022-10-05T05:27:49.402Z,9.20
2022-10-05T05:30:16.253Z,8.87
2022-10-05T05:32:52.013Z,9.20
2022-10-05T05:35:46.351Z,11.03
2022-10-05T05:38:13.046Z,9.27
2022-10-05T05:41:01.664Z,8.33
2022-10-05T05:43:41.436Z,9.73
2022-10-05T05:46:44.597Z,7.53
2022-10-05T05:49:22.847Z,8.67
2022-10-05T05:51:58.137Z,8.23
2022-10-05T05:54:33.776Z,8.30
2022-10-05T05:57:12.012Z,9.40
2022-10-05T05:59:53.433Z,10.73
2022-10-05T06:02:28.500Z,7.70
2022-10-05T06:05:01.619Z,8.50
2022-10-05T06:07:31.298Z,6.67
2022-10-05T06:10:24.869Z,12.20
2022-10-05T06:12:54.968Z,10.00
2022-10-05T06:15:32.820Z,7.20
2022-10-05T06:18:04.667Z,7.40
2022-10-05T06:20:39.643Z,7.83
2022-10-05T06:23:20.567Z,6.83
2022-10-05T06:26:14.689Z,7.87
2022-10-05T06:28:42.614Z,8.33
2022-10-05T06:31:33.168Z,9.43
2022-10-05T06:34:22.962Z,7.67
2022-10-05T06:37:31.106Z,8.43
2022-10-05T06:40:35.374Z,7.73
2022-10-05T06:43:10.046Z,6.10
2022-10-05T06:45:59.230Z,8.03
2022-10-05T06:48:57.812Z,7.27
2022-10-05T06:51:38.065Z,11.67
2022-10-05T06:54:30.396Z,7.57
2022-10-05T06:57:33.546Z,7.17
2022-10-05T07:00:26.930Z,7.87
2022-10-05T07:03:14.991Z,7.90
2022-10-05T07:06:06.107Z,8.37
2022-10-05T07:09:14.957Z,7.17
2022-10-05T07:12:07.802Z,7.43
2022-10-05T07:15:00.694Z,8.00
2022-10-05T07:17:36.322Z,7.97
2022-10-05T07:20:36.803Z,8.00
2022-10-05T07:23:20.520Z,7.13
2022-10-05T07:26:22.384Z,9.37
2022-10-05T07:29:06.835Z,9.10
2022-10-05T07:31:39.694Z,7.00
2022-10-05T07:34:27.043Z,5.20
2022-10-05T07:37:38.982Z,6.03
2022-10-05T07:40:29.931Z,7.13
2022-10-05T07:42:59.979Z,7.33
2022-10-05T07:45:28.923Z,4.80
2022-10-05T07:48:12.403Z,4.63
2022-10-05T07:50:53.408Z,4.50
2022-10-05T07:53:28.931Z,6.57
2022-10-05T07:56:00.222Z,3.90
2022-10-05T07:58:38.108Z,5.60
2022-10-05T08:01:19.294Z,5.97
2022-10-05T08:03:55.863Z,3.90
2022-10-05T08:06:37.706Z,6.27
2022-10-05T08:09:17.963Z,4.67
2022-10-05T08:11:58.029Z,6.57
2022-10-05T08:14:52.722Z,3.57
2022-10-05T08:18:00.473Z,3.83
2022-10-05T08:20:45.175Z,6.00
2022-10-05T08:23:25.724Z,5.83
2022-10-05T08:26:27.044Z,5.10
2022-10-05T08:29:15.076Z,9.83
2022-10-05T08:31:46.384Z,5.03
2022-10-05T08:34:31.826Z,4.83
2022-10-05T08:37:25.462Z,6.40
2022-10-05T08:40:01.153Z,7.37
2022-10-05T08:42:51.839Z,6.63
2022-10-05T08:45:30.135Z,5.80
2022-10-05T08:48:46.553Z,6.27
2022-10-05T08:51:34.492Z,6.30
2022-10-05T08:54:13.574Z,9.33
2022-10-05T08:57:24.301Z,7.00
2022-10-05T09:00:18.491Z,8.33
2022-10-05T09:03:34.287Z,7.87
2022-10-05T09:06:20.208Z,7.80
2022-10-05T09:09:17.260Z,6.90
2022-10-05T09:12:21.631Z,7.30
2022-10-05T09:15:25.545Z,4.90
2022-10-05T09:18:25.662Z,10.37
2022-10-05T09:20:55.147Z,8.27
2022-10-05T09:23:38.930Z,5.17
2022-10-05T09:26:28.392Z,5.47
2022-10-05T09:29:15.180Z,6.27
2022-10-05T09:32:03.077Z,8.13
2022-10-05T09:34:58.511Z,6.87
2022-10-05T09:37:28.030Z,5.57
2022-10-05T09:40:03.467Z,5.70
2022-10-05T09:42:56.292Z,10.50
2022-10-05T09:45:47.135Z,5.30
2022-10-05T09:48:40.595Z,6.50
2022-10-05T09:51:23.313Z,6.23
2022-10-05T09:54:34.652Z,6.13
2022-10-05T09:57:08.555Z,7.33
2022-10-05T09:59:57.352Z,5.70
2022-10-05T10:03:05.491Z,6.57
2022-10-05T10:05:50.274Z,4.67
2022-10-05T10:08:38.313Z,6.33
2022-10-05T10:11:42.444Z,7.93
2022-10-05T10:14:32.273Z,6.07
2022-10-05T10:17:20.492Z,3.43
2022-10-05T10:19:56.373Z,5.40
2022-10-05T10:22:28.987Z,6.43
2022-10-05T10:25:14.065Z,9.00
2022-10-05T10:28:14.485Z,6.40
2022-10-05T10:31:06.122Z,5.03
2022-10-05T10:34:09.917Z,5.00
2022-10-05T10:36:50.608Z,6.80
2022-10-05T10:39:56.040Z,5.57
2022-10-05T10:42:36.208Z,4.97
2022-10-05T10:45:28.714Z,6.93
2022-10-05T10:48:30.977Z,4.53
2022-10-05T10:51:19.235Z,6.83
2022-10-05T10:54:12.275Z,5.37
2022-10-05T10:57:10.197Z,5.20
2022-10-05T10:59:48.900Z,6.47
2022-10-05T11:02:44.547Z,4.10
2022-10-05T11:05:32.152Z,5.03
2022-10-05T11:08:37.097Z,6.00
2022-10-05T11:11:24.943Z,4.07
2022-10-05T11:14:02.574Z,7.20
2022-10-05T11:17:07.262Z,5.73
2022-10-05T11:20:12.176Z,5.53
2022-10-05T11:22:45.784Z,4.17
2022-10-05T11:25:15.271Z,4.33
2022-10-05T11:28:13.442Z,5.50
2022-10-05T11:31:14.711Z,4.10
2022-10-05T11:34:03.438Z,2.20
2022-10-05T11:36:45.232Z,2.57
2022-10-05T11:39:18.340Z,3.07
2022-10-05T11:41:48.291Z,3.93
2022-10-05T11:44:35.659Z,6.67
2022-10-05T11:47:11.260Z,4.07
2022-10-05T11:49:46.993Z,7.87
2022-10-05T11:52:30.997Z,4.97
2022-10-05T11:55:27.854Z,4.30
2022-10-05T11:58:12.660Z,4.10
2022-10-05T12:00:42.231Z,2.73
2022-10-05T12:03:31.372Z,5.10
2022-10-05T12:06:17.149Z,3.27
2022-10-05T12:09:03.731Z,6.07
2022-10-05T12:11:48.588Z,3.70
2022-10-05T12:14:37.210Z,3.40
2022-10-05T12:17:22.943Z,7.10
2022-10-05T12:20:00.260Z,3.73
2022-10-05T12:23:02.500Z,2.80
2022-10-05T12:25:51.320Z,2.70
2022-10-05T12:28:23.609Z,2.90
2022-10-05T12:31:09.087Z,5.20
2022-10-05T12:33:52.209Z,3.00
2022-10-05T12:36:31.885Z,3.87
2022-10-05T12:39:20.062Z,5.67
2022-10-05T12:41:56.469Z,4.27
2022-10-05T12:44:45.650Z,8.20
2022-10-05T12:47:40.646Z,3.10
2022-10-05T12:50:21.250Z,6.27
2022-10-05T12:53:07.260Z,3.63
2022-10-05T12:55:53.566Z,5.13
2022-10-05T12:59:04.242Z,3.67
2022-10-05T13:01:38.369Z,4.33
2022-10-05T13:04:38.430Z,3.67
2022-10-05T13:07:31.203Z,4.57
2022-10-05T13:10:22.618Z,4.47
2022-10-05T13:13:13.429Z,3.40
2022-10-05T13:15:56.414Z,3.90
2022-10-05T13:18:33.939Z,3.40
2022-10-05T13:21:14.034Z,4.40
2022-10-05T13:23:56.557Z,3.10
2022-10-05T13:26:39.485Z,4.50
2022-10-05T13:30:04.297Z,2.73
2022-10-05T13:32:45.834Z,4.73
2022-10-05T13:35:40.598Z,3.93
2022-10-05T13:38:25.835Z,2.33
2022-10-05T13:40:57.261Z,5.63
2022-10-05T13:43:45.114Z,2.93
2022-10-05T13:46:36.534Z,2.83
2022-10-05T13:49:29.366Z,3.50
2022-10-05T13:52:25.365Z,2.00
2022-10-05T13:55:35.670Z,4.43
2022-10-05T13:58:20.395Z,2.67
2022-10-05T14:00:49.102Z,5.43
2022-10-05T14:03:35.864Z,3.77
2022-10-05T14:06:15.197Z,3.27
2022-10-05T14:08:54.408Z,4.60
2022-10-05T14:11:23.837Z,6.83
2022-10-05T14:13:52.151Z,7.77
2022-10-05T14:16:24.410Z,5.30
2022-10-05T14:19:06.255Z,4.00
2022-10-05T14:21:53.726Z,4.10
2022-10-05T14:24:45.697Z,4.83
2022-10-05T14:27:29.231Z,1.90
2022-10-05T14:30:23.829Z,3.63
2022-10-05T14:33:00.483Z,4.77
2022-10-05T14:35:43.500Z,3.80
2022-10-05T14:38:29.450Z,7.83
2022-10-05T14:41:17.679Z,4.40
2022-10-05T14:43:53.130Z,5.53
2022-10-05T14:46:29.078Z,5.40
2022-10-05T14:49:29.712Z,3.50
2022-10-05T14:51:56.961Z,4.40
2022-10-05T14:54:25.786Z,3.17
2022-10-05T14:56:58.032Z,3.57
2022-10-05T14:59:35.377Z,3.33
2022-10-05T15:02:40.265Z,6.57
2022-10-05T15:05:27.154Z,2.27
2022-10-05T15:08:04.867Z,3.33
2022-10-05T15:10:42.180Z,5.17
2022-10-05T15:13:22.225Z,2.90
2022-10-05T15:15:56.557Z,3.27
2022-10-05T15:18:44.902Z,2.10
2022-10-05T15:21:42.345Z,3.03
2022-10-05T15:24:28.743Z,4.43
2022-10-05T15:27:02.167Z,3.90
2022-10-05T15:29:52.377Z,2.13
2022-10-05T15:32:31.484Z,1.63
2022-10-05T15:35:47.403Z,4.40
2022-10-05T15:38:21.282Z,3.63
2022-10-05T15:40:59.083Z,2.17
2022-10-05T15:43:36.764Z,4.03
2022-10-05T15:46:14.131Z,4.90
2022-10-05T15:49:10.650Z,4.60
2022-10-05T15:51:37.342Z,2.90
2022-10-05T15:54:37.230Z,2.47
2022-10-05T15:57:26.144Z,4.03
2022-10-05T16:00:04.194Z,4.33
2022-10-05T16:03:05.271Z,4.23
2022-10-05T16:06:05.920Z,3.23
2022-10-05T16:08:56.493Z,4.40
2022-10-05T16:11:42.249Z,4.37
2022-10-05T16:14:33.075Z,2.63
2022-10-05T16:17:26.425Z,4.60
2022-10-05T16:20:15.155Z,2.77
2022-10-05T16:23:05.385Z,2.47
2022-10-05T16:25:40.077Z,3.40
2022-10-05T16:28:14.567Z,4.47
2022-10-05T16:30:44.092Z,2.00
2022-10-05T16:33:18.679Z,2.03
2022-10-05T16:36:04.980Z,3.17
2022-10-05T16:38:47.875Z,5.37
2022-10-05T16:41:23.946Z,3.57
2022-10-05T16:44:12.297Z,3.30
2022-10-05T16:46:45.436Z,5.60
2022-10-05T16:49:47.212Z,2.67
2022-10-05T16:52:19.460Z,3.23
2022-10-05T16:54:53.759Z,5.43
2022-10-05T16:57:25.713Z,2.40
2022-10-05T17:00:30.707Z,3.63
2022-10-05T17:03:12.394Z,3.93
2022-10-05T17:05:57.431Z,4.37
2022-10-05T17:08:44.703Z,4.13
2022-10-05T17:11:29.788Z,2.47
2022-10-05T17:14:16.022Z,2.90
2022-10-05T17:16:54.032Z,5.40
2022-10-05T17:19:50.291Z,5.27
2022-10-05T17:22:39.865Z,5.87
2022-10-05T17:25:22.442Z,3.80
2022-10-05T17:28:12.858Z,4.43
2022-10-05T17:30:58.951Z,6.47
2022-10-05T17:33:33.747Z,3.53
2022-10-05T17:36:13.712Z,4.43
2022-10-05T17:38:48.972Z,4.73
2022-10-05T17:41:15.709Z,5.90
2022-10-05T17:44:19.455Z,4.33
2022-10-05T17:46:55.459Z,2.87
2022-10-05T17:50:16.405Z,3.07
2022-10-05T17:53:02.958Z,4.80
2022-10-05T17:55:32.706Z,5.27
2022-10-05T17:58:21.785Z,3.70
2022-10-05T18:01:13.092Z,3.57
2022-10-05T18:03:42.736Z,2.77
2022-10-05T18:06:47.580Z,3.67
2022-10-05T18:09:16.889Z,4.53
2022-10-05T18:11:48.155Z,2.77
2022-10-05T18:14:30.129Z,2.97
2022-10-05T18:17:04.579Z,2.93
2022-10-05T18:19:32.419Z,4.13
2022-10-05T18:22:10.237Z,3.67
2022-10-05T18:24:46.035Z,4.80
2022-10-05T18:27:51.776Z,2.00
2022-10-05T18:30:24.875Z,3.67
2022-10-05T18:32:54.354Z,3.90
2022-10-05T18:35:24.330Z,2.83
2022-10-05T18:38:29.250Z,4.27
2022-10-05T18:41:05.295Z,3.30
2022-10-05T18:43:51.118Z,5.43
2022-10-05T18:46:34.483Z,6.73
2022-10-05T18:49:33.224Z,3.60
2022-10-05T18:52:36.811Z,5.73
2022-10-05T18:55:22.017Z,4.93
2022-10-05T18:58:10.136Z,3.10
2022-10-05T19:01:02.711Z,3.33
2022-10-05T19:03:49.677Z,5.60
2022-10-05T19:06:29.984Z,5.63
2022-10-05T19:09:30.464Z,4.93
2022-10-05T19:11:57.113Z,5.93
2022-10-05T19:14:47.986Z,6.17
2022-10-05T19:17:33.319Z,5.33
2022-10-05T19:20:05.733Z,6.03
2022-10-05T19:22:52.901Z,4.13
2022-10-05T19:25:36.852Z,4.33
2022-10-05T19:28:12.643Z,3.43
2022-10-05T19:30:42.093Z,2.57
2022-10-05T19:33:42.923Z,4.30
2022-10-05T19:36:15.779Z,3.60
2022-10-05T19:38:57.381Z,1.93
2022-10-05T19:41:50.564Z,3.13
2022-10-05T19:44:30.959Z,4.07
2022-10-05T19:47:06.012Z,3.63
2022-10-05T19:49:53.003Z,3.67
2022-10-05T19:52:23.068Z,3.40
2022-10-05T19:55:22.423Z,3.60
2022-10-05T19:57:51.743Z,4.43
2022-10-05T20:00:22.493Z,2.90
2022-10-05T20:02:50.888Z,3.33
2022-10-05T20:05:18.660Z,4.67
2022-10-05T20:07:45.626Z,5.63
2022-10-05T20:10:24.874Z,4.40
2022-10-05T20:12:55.921Z,6.13
2022-10-05T20:15:46.964Z,4.07
2022-10-05T20:18:58.137Z,6.60
2022-10-05T20:21:47.308Z,5.37
2022-10-05T20:24:18.941Z,5.73
2022-10-05T20:27:06.572Z,6.53
2022-10-05T20:29:35.504Z,5.07
2022-10-05T20:32:12.231Z,6.07
2022-10-05T20:34:47.006Z,7.03
2022-10-05T20:37:16.641Z,6.93
2022-10-05T20:39:44.130Z,3.63
2022-10-05T20:42:11.445Z,8.13
2022-10-05T20:44:38.407Z,5.63
2022-10-05T20:47:08.739Z,8.30
2022-10-05T20:49:41.045Z,4.50
2022-10-05T20:52:10.164Z,5.70
2022-10-05T20:54:38.300Z,4.87
2022-10-05T20:57:06.723Z,6.27
2022-10-05T20:59:34.113Z,4.27
2022-10-05T21:02:01.651Z,6.50
2022-10-05T21:04:41.529Z,6.27
2022-10-05T21:07:11.646Z,3.67
2022-10-05T21:09:39.424Z,1.63
2022-10-05T21:12:06.633Z,2.27
2022-10-05T21:14:40.521Z,2.33
2022-10-05T21:17:07.913Z,2.33
2022-10-05T21:19:38.752Z,1.57
2022-10-05T21:22:10.103Z,1.43
2022-10-05T21:24:43.216Z,3.07
2022-10-05T21:27:10.238Z,3.13
2022-10-05T21:29:37.248Z,6.23
2022-10-05T21:32:08.448Z,3.70
2022-10-05T21:34:35.450Z,4.33
2022-10-05T21:37:02.401Z,2.97
2022-10-05T21:39:29.137Z,3.20
2022-10-05T21:41:56.298Z,6.30
2022-10-05T21:44:23.117Z,4.53
2022-10-05T21:46:50.112Z,8.87
2022-10-05T21:49:18.956Z,6.63
2022-10-05T21:51:47.267Z,5.37
2022-10-05T21:54:21.097Z,4.90
2022-10-05T21:56:51.619Z,5.20
2022-10-05T21:59:21.784Z,4.23
2022-10-05T22:01:48.669Z,5.90
2022-10-05T22:04:16.024Z,3.93
2022-10-05T22:06:43.123Z,5.47
2022-10-05T22:09:12.778Z,4.57
2022-10-05T22:11:41.837Z,7.63
2022-10-05T22:14:08.901Z,5.60
2022-10-05T22:16:38.209Z,6.33
2022-10-05T22:19:10.145Z,5.17
2022-10-05T22:21:41.451Z,4.10
2022-10-05T22:24:11.431Z,4.47
2022-10-05T22:26:39.706Z,4.23
2022-10-05T22:29:06.543Z,7.10
2022-10-05T22:31:33.426Z,5.93
2022-10-05T22:34:00.156Z,2.97
2022-10-05T22:36:27.168Z,5.77
2022-10-05T22:38:54.433Z,4.63
2022-10-05T22:41:21.243Z,4.20
2022-10-05T22:43:50.117Z,7.60
2022-10-05T22:46:17.678Z,8.17
2022-10-05T22:48:44.632Z,5.47
2022-10-05T22:51:11.642Z,5.07
2022-10-05T22:53:38.383Z,2.63
2022-10-05T22:56:11.287Z,3.53
2022-10-05T22:58:38.423Z,5.90
2022-10-05T23:01:08.019Z,4.63
2022-10-05T23:03:35.254Z,7.07
2022-10-05T23:06:10.909Z,4.87
2022-10-05T23:08:38.725Z,9.00
2022-10-05T23:11:14.113Z,6.77
2022-10-05T23:13:41.263Z,8.40
2022-10-05T23:16:12.910Z,7.07
2022-10-05T23:18:40.484Z,5.20
2022-10-05T23:21:08.667Z,4.97
2022-10-05T23:23:45.531Z,9.00
2022-10-05T23:26:12.760Z,8.27
2022-10-05T23:28:46.662Z,6.90
2022-10-05T23:31:15.946Z,9.53
2022-10-05T23:33:42.709Z,10.47
2022-10-05T23:36:12.381Z,7.60
2022-10-05T23:38:39.178Z,4.80
2022-10-05T23:41:06.841Z,12.40
2022-10-05T23:43:33.676Z,4.80
2022-10-05T23:46:01.062Z,7.47
2022-10-05T23:48:28.760Z,8.57
2022-10-05T23:50:55.887Z,10.43
2022-10-05T23:53:23.627Z,5.47
2022-10-05T23:55:51.450Z,8.50
2022-10-05T23:58:18.878Z,10.57
